createdAt,value
2019-03-25T00:01:50.033Z,3.70
2019-03-25T00:04:19.509Z,3.70
2019-03-25T00:06:48.413Z,3.90
2019-03-25T00:09:17.140Z,3.60
2019-03-25T00:11:45.925Z,3.83
2019-03-25T00:14:14.867Z,3.83
2019-03-25T00:16:43.636Z,3.65
2019-03-25T00:19:12.135Z,4.00
2019-03-25T00:21:40.807Z,3.70
2019-03-25T00:24:09.963Z,3.80
2019-03-25T00:26:38.473Z,3.95
2019-03-25T00:29:07.571Z,3.90
2019-03-25T00:31:36.278Z,4.10
2019-03-25T00:34:04.613Z,3.83
2019-03-25T00:36:33.719Z,4.50
2019-03-25T00:39:02.434Z,4.40
2019-03-25T00:41:30.699Z,4.30
2019-03-25T00:43:59.388Z,4.25
2019-03-25T00:46:27.696Z,4.40
2019-03-25T00:48:57.493Z,4.47
2019-03-25T00:51:26.372Z,4.03
2019-03-25T00:53:55.443Z,4.20
2019-03-25T00:56:24.150Z,4.10
2019-03-25T00:58:52.938Z,4.33
2019-03-25T01:01:22.452Z,4.05
2019-03-25T01:03:51.155Z,4.33
2019-03-25T01:06:19.486Z,4.12
2019-03-25T01:08:47.899Z,3.90
2019-03-25T01:11:16.797Z,3.65
2019-03-25T01:13:45.201Z,3.47
2019-03-25T01:16:13.864Z,4.00
2019-03-25T01:18:42.207Z,3.70
2019-03-25T01:21:10.884Z,3.80
2019-03-25T01:23:39.645Z,3.90
2019-03-25T01:26:08.387Z,3.90
2019-03-25T01:28:36.810Z,3.40
2019-03-25T01:31:05.671Z,4.10
2019-03-25T01:33:34.868Z,3.58
2019-03-25T01:36:03.616Z,3.70
2019-03-25T01:38:32.031Z,3.50
2019-03-25T01:41:00.893Z,3.30
2019-03-25T01:43:29.223Z,3.00
2019-03-25T01:45:58.186Z,3.30
2019-03-25T01:48:26.552Z,3.40
2019-03-25T01:50:55.380Z,3.62
2019-03-25T01:53:24.309Z,3.00
2019-03-25T01:55:52.676Z,2.90
2019-03-25T01:58:21.555Z,3.40
2019-03-25T02:00:50.222Z,3.20
2019-03-25T02:03:19.406Z,3.30
2019-03-25T02:05:48.614Z,3.60
2019-03-25T02:08:16.923Z,3.60
2019-03-25T02:10:45.331Z,3.65
2019-03-25T02:13:13.785Z,3.20
2019-03-25T02:15:42.897Z,3.10
2019-03-25T02:18:12.201Z,3.45
2019-03-25T02:20:41.384Z,3.80
2019-03-25T02:23:10.497Z,4.05
2019-03-25T02:25:39.435Z,4.20
2019-03-25T02:28:08.214Z,4.00
2019-03-25T02:30:37.180Z,4.10
2019-03-25T02:33:05.704Z,3.80
2019-03-25T02:35:34.039Z,3.77
2019-03-25T02:38:02.433Z,3.83
2019-03-25T02:40:31.315Z,5.35
2019-03-25T02:42:59.927Z,4.23
2019-03-25T02:45:28.372Z,4.45
2019-03-25T02:47:57.091Z,4.40
2019-03-25T02:50:25.516Z,4.62
2019-03-25T02:52:54.151Z,4.65
2019-03-25T02:55:22.619Z,4.75
2019-03-25T02:57:51.427Z,5.42
2019-03-25T03:00:31.324Z,5.20
2019-03-25T03:02:59.698Z,4.65
2019-03-25T03:05:28.197Z,5.00
2019-03-25T03:07:56.492Z,5.00
2019-03-25T03:10:25.777Z,4.90
2019-03-25T03:12:54.505Z,4.95
2019-03-25T03:15:23.184Z,5.13
2019-03-25T03:17:51.615Z,4.60
2019-03-25T03:20:20.042Z,5.25
2019-03-25T03:22:48.473Z,5.53
2019-03-25T03:25:16.879Z,5.00
2019-03-25T03:27:45.913Z,5.10
2019-03-25T03:30:14.994Z,4.72
2019-03-25T03:32:43.725Z,6.05
2019-03-25T03:35:12.361Z,5.37
2019-03-25T03:37:40.906Z,5.30
2019-03-25T03:40:09.385Z,5.22
2019-03-25T03:42:37.787Z,5.28
2019-03-25T03:45:06.554Z,5.90
2019-03-25T03:47:34.979Z,5.30
2019-03-25T03:50:05.589Z,5.80
2019-03-25T03:52:34.677Z,5.55
2019-03-25T03:55:03.555Z,5.37
2019-03-25T03:57:32.360Z,5.33
2019-03-25T04:00:02.260Z,6.00
2019-03-25T04:02:30.899Z,6.00
2019-03-25T04:04:59.320Z,7.28
2019-03-25T04:07:28.560Z,5.47
2019-03-25T04:09:56.923Z,5.78
2019-03-25T04:12:25.907Z,4.80
2019-03-25T04:14:54.203Z,4.92
2019-03-25T04:17:23.141Z,5.17
2019-03-25T04:19:51.852Z,4.60
2019-03-25T04:22:20.664Z,5.70
2019-03-25T04:24:50.192Z,4.67
2019-03-25T04:27:18.584Z,4.12
2019-03-25T04:29:47.618Z,4.50
2019-03-25T04:32:16.228Z,4.05
2019-03-25T04:34:44.847Z,3.80
2019-03-25T04:37:13.428Z,3.83
2019-03-25T04:39:42.051Z,3.80
2019-03-25T04:42:10.662Z,3.90
2019-03-25T04:44:39.227Z,3.37
2019-03-25T04:47:07.564Z,3.20
2019-03-25T04:49:35.917Z,3.40
2019-03-25T04:52:04.526Z,2.90
2019-03-25T04:54:33.220Z,2.67
2019-03-25T04:57:01.822Z,2.00
2019-03-25T04:59:30.707Z,1.95
2019-03-25T05:01:59.388Z,2.42
2019-03-25T05:04:27.704Z,2.00
2019-03-25T05:06:56.387Z,2.93
2019-03-25T05:09:24.659Z,3.10
2019-03-25T05:11:53.004Z,2.95
2019-03-25T05:14:22.310Z,4.08
2019-03-25T05:16:50.619Z,3.00
2019-03-25T05:19:19.240Z,3.00
2019-03-25T05:21:47.966Z,3.45
2019-03-25T05:24:16.506Z,2.90
2019-03-25T05:26:50.989Z,2.30
2019-03-25T05:29:15.423Z,2.90
2019-03-25T05:31:44.026Z,2.50
2019-03-25T05:34:12.917Z,2.20
2019-03-25T05:36:41.912Z,2.30
2019-03-25T05:39:10.525Z,2.20
2019-03-25T05:41:39.097Z,2.30
2019-03-25T05:44:07.746Z,2.20
2019-03-25T05:46:36.388Z,1.90
2019-03-25T05:49:04.683Z,1.72
2019-03-25T05:51:33.444Z,1.90
2019-03-25T05:54:01.761Z,1.52
2019-03-25T05:56:30.111Z,1.70
2019-03-25T05:58:58.936Z,1.60
2019-03-25T06:01:27.696Z,1.40
2019-03-25T06:03:56.492Z,1.70
2019-03-25T06:06:25.530Z,1.95
2019-03-25T06:08:54.327Z,1.62
2019-03-25T06:11:23.021Z,2.30
2019-03-25T06:13:51.726Z,1.82
2019-03-25T06:16:20.996Z,1.92
2019-03-25T06:18:49.624Z,3.87
2019-03-25T06:21:18.051Z,2.20
2019-03-25T06:23:46.806Z,1.40
2019-03-25T06:26:15.244Z,2.00
2019-03-25T06:28:43.607Z,1.80
2019-03-25T06:31:14.271Z,1.70
2019-03-25T06:33:43.863Z,1.80
2019-03-25T06:36:12.156Z,1.40
2019-03-25T06:38:40.757Z,1.30
2019-03-25T06:41:09.051Z,1.40
2019-03-25T06:43:37.780Z,1.50
2019-03-25T06:46:06.460Z,1.60
2019-03-25T06:48:34.784Z,1.70
2019-03-25T06:51:04.202Z,1.40
2019-03-25T06:53:33.116Z,1.30
2019-03-25T06:56:01.716Z,1.40
2019-03-25T06:58:30.262Z,1.27
2019-03-25T07:00:58.584Z,1.40
2019-03-25T07:03:29.743Z,1.40
2019-03-25T07:05:57.587Z,1.40
2019-03-25T07:08:25.924Z,1.50
2019-03-25T07:10:54.356Z,1.40
2019-03-25T07:13:22.643Z,1.50
2019-03-25T07:15:50.971Z,1.60
2019-03-25T07:18:20.427Z,2.03
2019-03-25T07:20:48.805Z,1.62
2019-03-25T07:23:17.376Z,1.80
2019-03-25T07:25:45.696Z,2.20
2019-03-25T07:28:14.405Z,3.52
2019-03-25T07:30:42.704Z,2.45
2019-03-25T07:33:11.001Z,3.67
2019-03-25T07:35:39.599Z,5.37
2019-03-25T07:38:07.896Z,14.23
2019-03-25T07:40:36.223Z,6.33
2019-03-25T07:43:04.551Z,5.40
2019-03-25T07:45:32.875Z,2.67
2019-03-25T07:48:01.208Z,7.67
2019-03-25T07:50:29.553Z,4.05
2019-03-25T07:52:58.241Z,2.80
2019-03-25T07:55:26.933Z,2.55
2019-03-25T07:57:55.226Z,2.20
2019-03-25T08:00:23.573Z,2.70
2019-03-25T08:02:51.877Z,2.75
2019-03-25T08:05:20.849Z,2.10
2019-03-25T08:07:49.540Z,4.83
2019-03-25T08:10:20.716Z,4.40
2019-03-25T08:12:49.423Z,2.20
2019-03-25T08:15:17.745Z,2.90
2019-03-25T08:17:46.588Z,2.35
2019-03-25T08:20:17.163Z,2.42
2019-03-25T08:22:45.839Z,2.45
2019-03-25T08:25:15.561Z,2.40
2019-03-25T08:27:43.872Z,2.47
2019-03-25T08:30:12.538Z,2.60
2019-03-25T08:32:42.136Z,3.27
2019-03-25T08:35:11.028Z,2.10
2019-03-25T08:37:39.817Z,2.10
2019-03-25T08:40:08.555Z,2.08
2019-03-25T08:42:37.314Z,1.72
2019-03-25T08:45:06.488Z,2.08
2019-03-25T08:47:35.280Z,2.17
2019-03-25T08:50:03.947Z,2.10
2019-03-25T08:52:32.386Z,1.98
2019-03-25T08:55:01.195Z,2.10
2019-03-25T08:57:29.740Z,2.00
2019-03-25T08:59:58.127Z,2.35
2019-03-25T09:02:28.870Z,1.90
2019-03-25T09:04:58.373Z,2.02
2019-03-25T09:07:27.229Z,2.40
2019-03-25T09:09:56.011Z,2.40
2019-03-25T09:12:24.392Z,1.80
2019-03-25T09:14:54.577Z,2.02
2019-03-25T09:17:23.049Z,1.87
2019-03-25T09:19:51.524Z,1.90
2019-03-25T09:22:19.908Z,1.70
2019-03-25T09:24:48.153Z,1.77
2019-03-25T09:27:16.523Z,2.50
2019-03-25T09:29:45.080Z,2.70
2019-03-25T09:32:13.622Z,2.40
2019-03-25T09:34:41.844Z,2.25
2019-03-25T09:37:10.459Z,2.80
2019-03-25T09:39:39.528Z,2.98
2019-03-25T09:42:07.794Z,2.83
2019-03-25T09:44:36.381Z,2.90
2019-03-25T09:47:05.279Z,2.37
2019-03-25T09:49:33.569Z,2.45
2019-03-25T09:52:02.441Z,2.25
2019-03-25T09:54:30.757Z,2.60
2019-03-25T09:56:59.284Z,2.30
2019-03-25T09:59:27.612Z,2.55
2019-03-25T10:01:55.856Z,2.40
2019-03-25T10:04:24.122Z,2.10
2019-03-25T10:06:52.369Z,2.20
2019-03-25T10:09:20.996Z,2.30
2019-03-25T10:11:49.532Z,2.50
2019-03-25T10:14:17.894Z,2.95
2019-03-25T10:16:46.848Z,2.30
2019-03-25T10:19:15.116Z,2.25
2019-03-25T10:21:43.464Z,1.87
2019-03-25T10:24:12.196Z,1.80
2019-03-25T10:26:40.663Z,2.40
2019-03-25T10:29:09.024Z,2.00
2019-03-25T10:31:37.596Z,2.05
2019-03-25T10:34:05.882Z,1.90
2019-03-25T10:36:34.709Z,2.20
2019-03-25T10:39:03.383Z,2.10
2019-03-25T10:41:31.641Z,1.85
2019-03-25T10:44:00.453Z,1.92
2019-03-25T10:46:28.643Z,1.47
2019-03-25T10:48:56.881Z,1.90
2019-03-25T10:51:25.573Z,1.40
2019-03-25T10:53:54.380Z,1.70
2019-03-25T10:56:23.272Z,1.70
2019-03-25T10:58:58.020Z,1.50
2019-03-25T11:01:22.377Z,1.80
2019-03-25T11:03:51.281Z,1.70
2019-03-25T11:06:19.866Z,1.40
2019-03-25T11:08:48.977Z,1.62
2019-03-25T11:11:17.800Z,1.40
2019-03-25T11:13:46.022Z,1.50
2019-03-25T11:16:14.232Z,1.85
2019-03-25T11:18:42.485Z,1.50
2019-03-25T11:21:10.957Z,1.47
2019-03-25T11:23:39.225Z,1.60
2019-03-25T11:26:07.825Z,1.23
2019-03-25T11:28:36.128Z,1.60
2019-03-25T11:31:04.661Z,1.57
2019-03-25T11:33:32.981Z,1.50
2019-03-25T11:36:02.792Z,1.60
2019-03-25T11:38:31.234Z,1.60
2019-03-25T11:40:59.833Z,1.50
2019-03-25T11:43:28.422Z,1.80
2019-03-25T11:45:56.632Z,1.90
2019-03-25T11:49:55.665Z,2.87
2019-03-25T11:52:23.894Z,3.52
2019-03-25T11:54:52.176Z,1.80
2019-03-25T11:57:20.567Z,1.98
2019-03-25T11:59:49.226Z,1.75
2019-03-25T12:02:18.004Z,1.57
2019-03-25T12:04:46.381Z,1.70
2019-03-25T12:07:15.041Z,1.80
2019-03-25T12:09:43.708Z,1.80
2019-03-25T12:12:12.551Z,1.95
2019-03-25T12:14:40.758Z,2.40
2019-03-25T12:17:09.018Z,2.40
2019-03-25T12:19:37.633Z,2.42
2019-03-25T12:22:06.144Z,2.50
2019-03-25T12:24:34.403Z,2.42
2019-03-25T12:27:02.645Z,2.37
2019-03-25T12:29:30.932Z,2.90
2019-03-25T12:31:59.744Z,2.40
2019-03-25T12:34:28.283Z,2.33
2019-03-25T12:36:56.580Z,2.40
2019-03-25T12:39:24.798Z,2.20
2019-03-25T12:41:53.409Z,2.33
2019-03-25T12:44:21.685Z,2.65
2019-03-25T12:46:49.937Z,2.62
2019-03-25T12:49:18.174Z,2.60
2019-03-25T12:51:48.503Z,2.93
2019-03-25T12:54:16.925Z,3.20
2019-03-25T12:56:45.520Z,2.70
2019-03-25T12:59:13.780Z,2.60
2019-03-25T13:01:52.452Z,2.80
2019-03-25T13:04:12.507Z,2.30
2019-03-25T13:06:40.867Z,1.95
2019-03-25T13:09:09.532Z,2.10
2019-03-25T13:11:38.158Z,2.25
2019-03-25T13:14:06.736Z,1.90
2019-03-25T13:16:35.336Z,2.15
2019-03-25T13:19:03.906Z,2.00
2019-03-25T13:21:32.147Z,1.90
2019-03-25T13:24:00.394Z,2.00
2019-03-25T13:26:28.623Z,1.90
2019-03-25T13:29:02.058Z,2.10
2019-03-25T13:31:27.852Z,1.80
2019-03-25T13:33:56.458Z,2.20
2019-03-25T13:36:25.326Z,1.90
2019-03-25T13:38:53.550Z,2.20
2019-03-25T13:41:21.779Z,1.82
2019-03-25T13:43:50.113Z,2.17
2019-03-25T13:46:18.938Z,2.00
2019-03-25T13:48:47.531Z,2.30
2019-03-25T13:51:15.816Z,2.30
2019-03-25T13:53:44.410Z,2.22
2019-03-25T13:56:13.396Z,2.10
2019-03-25T13:58:41.938Z,2.20
2019-03-25T14:01:10.621Z,2.30
2019-03-25T14:03:38.882Z,2.40
2019-03-25T14:06:07.503Z,2.20
2019-03-25T14:08:36.115Z,2.10
2019-03-25T14:11:04.810Z,2.40
2019-03-25T14:13:33.623Z,2.12
2019-03-25T14:16:02.023Z,2.30
2019-03-25T14:18:30.262Z,1.85
2019-03-25T14:20:58.835Z,1.87
2019-03-25T14:23:27.711Z,2.30
2019-03-25T14:25:56.264Z,2.10
2019-03-25T14:28:25.501Z,2.47
2019-03-25T14:30:53.862Z,2.40
2019-03-25T14:33:22.890Z,2.27
2019-03-25T14:35:51.207Z,2.10
2019-03-25T14:38:19.470Z,2.33
2019-03-25T14:40:47.726Z,2.50
2019-03-25T14:43:16.775Z,2.50
2019-03-25T14:45:45.014Z,2.52
2019-03-25T14:48:14.163Z,2.30
2019-03-25T14:50:43.470Z,2.45
2019-03-25T14:53:11.791Z,2.42
2019-03-25T14:55:40.333Z,2.70
2019-03-25T14:58:08.900Z,2.60
2019-03-25T15:00:37.691Z,2.35
2019-03-25T15:03:05.927Z,2.22
2019-03-25T15:05:34.305Z,2.20
2019-03-25T15:08:02.947Z,2.20
2019-03-25T15:10:31.211Z,2.90
2019-03-25T15:12:59.866Z,2.40
2019-03-25T15:15:28.655Z,2.30
2019-03-25T15:17:57.274Z,2.33
2019-03-25T15:20:25.870Z,2.00
2019-03-25T15:22:54.172Z,2.43
2019-03-25T15:25:22.733Z,2.25
2019-03-25T15:27:51.039Z,2.60
2019-03-25T15:30:20.382Z,2.50
2019-03-25T15:32:48.617Z,2.80
2019-03-25T15:35:17.160Z,2.40
2019-03-25T15:37:45.711Z,2.10
2019-03-25T15:40:14.431Z,2.45
2019-03-25T15:42:42.651Z,4.05
2019-03-25T15:45:11.398Z,3.40
2019-03-25T15:47:40.616Z,3.40
2019-03-25T15:50:09.747Z,5.58
2019-03-25T15:52:38.715Z,3.55
2019-03-25T15:55:06.958Z,4.10
2019-03-25T15:57:35.540Z,2.60
2019-03-25T16:00:04.541Z,3.40
2019-03-25T16:02:33.394Z,4.00
2019-03-25T16:05:01.609Z,2.90
2019-03-25T16:07:30.368Z,2.40
2019-03-25T16:09:58.608Z,2.20
2019-03-25T16:12:26.824Z,2.92
2019-03-25T16:14:55.099Z,2.50
2019-03-25T16:17:23.347Z,2.50
2019-03-25T16:19:51.909Z,2.10
2019-03-25T16:22:20.153Z,2.20
2019-03-25T16:24:48.741Z,2.40
2019-03-25T16:27:17.330Z,2.05
2019-03-25T16:29:45.609Z,3.20
2019-03-25T16:32:13.870Z,3.20
2019-03-25T16:34:42.350Z,2.70
2019-03-25T16:37:10.912Z,2.47
2019-03-25T16:39:39.140Z,2.30
2019-03-25T16:42:07.859Z,2.60
2019-03-25T16:44:36.106Z,2.62
2019-03-25T16:47:04.415Z,2.70
2019-03-25T16:49:32.616Z,2.67
2019-03-25T16:52:00.824Z,2.50
2019-03-25T16:54:29.099Z,1.95
2019-03-25T16:56:57.435Z,2.30
2019-03-25T16:59:26.121Z,2.50
2019-03-25T17:01:54.378Z,2.20
2019-03-25T17:04:23.239Z,2.20
2019-03-25T17:06:51.460Z,2.30
2019-03-25T17:09:20.282Z,1.90
2019-03-25T17:11:48.544Z,2.20
2019-03-25T17:14:16.796Z,1.90
2019-03-25T17:16:45.323Z,2.05
2019-03-25T17:19:13.635Z,2.00
2019-03-25T17:21:42.489Z,2.00
2019-03-25T17:24:14.025Z,2.00
2019-03-25T17:26:42.580Z,2.00
2019-03-25T17:29:11.295Z,1.90
2019-03-25T17:31:40.106Z,1.60
2019-03-25T17:34:09.987Z,1.75
2019-03-25T17:36:38.925Z,2.20
2019-03-25T17:39:09.024Z,1.80
2019-03-25T17:41:37.610Z,2.10
2019-03-25T17:44:05.926Z,1.82
2019-03-25T17:46:34.249Z,2.00
2019-03-25T17:49:02.532Z,2.08
2019-03-25T17:51:30.750Z,2.30
2019-03-25T17:53:59.368Z,2.25
2019-03-25T17:56:27.893Z,2.70
2019-03-25T17:58:56.136Z,2.25
2019-03-25T18:01:32.569Z,2.20
2019-03-25T18:04:01.844Z,2.22
2019-03-25T18:06:30.382Z,1.90
2019-03-25T18:08:58.614Z,2.00
2019-03-25T18:11:27.319Z,2.10
2019-03-25T18:13:55.805Z,1.70
2019-03-25T18:16:24.199Z,2.00
2019-03-25T18:18:53.160Z,3.55
2019-03-25T18:21:21.492Z,2.70
2019-03-25T18:23:50.298Z,2.20
2019-03-25T18:26:19.983Z,1.90
2019-03-25T18:28:48.497Z,1.90
2019-03-25T18:31:16.801Z,2.15
2019-03-25T18:33:45.346Z,1.98
2019-03-25T18:36:13.713Z,2.10
2019-03-25T18:38:42.316Z,2.50
2019-03-25T18:41:10.572Z,2.05
2019-03-25T18:43:38.797Z,2.02
2019-03-25T18:46:07.766Z,1.90
2019-03-25T18:48:36.334Z,2.43
2019-03-25T18:51:04.934Z,2.20
2019-03-25T18:53:33.831Z,2.00
2019-03-25T18:56:02.473Z,2.10
2019-03-25T18:58:31.074Z,2.20
2019-03-25T19:00:59.691Z,2.30
2019-03-25T19:03:28.274Z,2.55
2019-03-25T19:05:56.484Z,2.70
2019-03-25T19:08:25.342Z,2.20
2019-03-25T19:10:53.624Z,2.05
2019-03-25T19:13:21.884Z,2.33
2019-03-25T19:15:50.096Z,1.90
2019-03-25T19:18:18.351Z,2.90
2019-03-25T19:20:46.611Z,3.10
2019-03-25T19:23:15.286Z,2.40
2019-03-25T19:25:43.522Z,2.30
2019-03-25T19:28:12.029Z,4.20
2019-03-25T19:30:40.596Z,3.10
2019-03-25T19:33:09.231Z,2.95
2019-03-25T19:35:37.432Z,2.43
2019-03-25T19:38:05.695Z,3.00
2019-03-25T19:40:34.241Z,3.20
2019-03-25T19:43:02.847Z,2.50
2019-03-25T19:45:31.095Z,2.40
2019-03-25T19:47:59.605Z,3.17
2019-03-25T19:50:27.857Z,2.83
2019-03-25T19:52:56.276Z,2.75
2019-03-25T19:55:24.490Z,2.80
2019-03-25T19:57:52.747Z,2.52
2019-03-25T20:00:27.037Z,2.55
2019-03-25T20:02:55.354Z,2.60
2019-03-25T20:05:23.560Z,2.70
2019-03-25T20:07:51.816Z,2.70
2019-03-25T20:10:28.725Z,2.60
2019-03-25T20:12:58.096Z,2.22
2019-03-25T20:15:26.721Z,3.10
2019-03-25T20:17:55.632Z,3.00
2019-03-25T20:20:24.221Z,2.60
2019-03-25T20:22:52.791Z,2.60
2019-03-25T20:25:21.672Z,2.83
2019-03-25T20:27:50.260Z,2.85
2019-03-25T20:30:18.933Z,2.60
2019-03-25T20:32:47.997Z,2.55
2019-03-25T20:35:16.939Z,2.83
2019-03-25T20:37:45.227Z,3.12
2019-03-25T20:40:13.622Z,2.80
2019-03-25T20:42:42.176Z,2.90
2019-03-25T20:45:11.068Z,2.60
2019-03-25T20:47:39.654Z,2.80
2019-03-25T20:50:08.103Z,2.90
2019-03-25T20:52:36.829Z,3.50
2019-03-25T20:55:05.818Z,3.20
2019-03-25T20:57:34.713Z,3.20
2019-03-25T21:00:03.313Z,2.90
2019-03-25T21:02:44.444Z,3.25
2019-03-25T21:05:02.139Z,2.70
2019-03-25T21:07:30.370Z,3.27
2019-03-25T21:09:58.997Z,8.80
2019-03-25T21:12:27.550Z,3.77
2019-03-25T21:14:56.439Z,2.57
2019-03-25T21:17:25.252Z,2.60
2019-03-25T21:19:53.565Z,2.30
2019-03-25T21:22:22.408Z,2.10
2019-03-25T21:24:50.589Z,2.52
2019-03-25T21:27:19.185Z,2.40
2019-03-25T21:29:47.395Z,2.50
2019-03-25T21:32:15.937Z,18.93
2019-03-25T21:34:44.133Z,15.68
2019-03-25T21:37:13.049Z,25.00
2019-03-25T21:39:41.973Z,16.95
2019-03-25T21:42:10.448Z,10.95
2019-03-25T21:44:39.645Z,5.50
2019-03-25T21:47:08.237Z,6.90
2019-03-25T21:49:36.708Z,6.47
2019-03-25T21:52:05.017Z,4.45
2019-03-25T21:54:33.584Z,4.65
2019-03-25T21:57:02.504Z,3.60
2019-03-25T21:59:31.299Z,2.70
2019-03-25T22:01:59.510Z,2.67
2019-03-25T22:04:28.016Z,2.80
2019-03-25T22:06:56.572Z,2.80
2019-03-25T22:09:24.800Z,2.80
2019-03-25T22:11:53.630Z,2.70
2019-03-25T22:14:21.861Z,2.50
2019-03-25T22:16:50.395Z,2.70
2019-03-25T22:19:19.385Z,2.80
2019-03-25T22:21:47.901Z,3.08
2019-03-25T22:24:16.785Z,2.50
2019-03-25T22:26:45.023Z,2.37
2019-03-25T22:29:13.240Z,2.40
2019-03-25T22:31:41.498Z,2.50
2019-03-25T22:34:10.114Z,2.60
2019-03-25T22:36:38.341Z,2.80
2019-03-25T22:39:07.142Z,2.52
2019-03-25T22:41:35.402Z,2.70
2019-03-25T22:44:03.622Z,2.70
2019-03-25T22:46:32.038Z,2.90
2019-03-25T22:49:05.046Z,3.00
2019-03-25T22:51:33.876Z,2.95
2019-03-25T22:54:02.113Z,3.30
2019-03-25T22:56:30.943Z,3.90
2019-03-25T22:58:59.251Z,3.70
2019-03-25T23:01:27.799Z,3.20
2019-03-25T23:03:56.011Z,3.00
2019-03-25T23:06:25.066Z,2.90
2019-03-25T23:08:53.320Z,3.00
2019-03-25T23:11:21.821Z,3.50
2019-03-25T23:13:50.064Z,2.73
2019-03-25T23:16:18.275Z,3.10
2019-03-25T23:18:46.823Z,2.90
2019-03-25T23:21:15.703Z,2.70
2019-03-25T23:23:44.221Z,2.60
2019-03-25T23:26:12.430Z,2.50
2019-03-25T23:28:40.993Z,2.42
2019-03-25T23:31:10.544Z,2.70
2019-03-25T23:33:51.416Z,2.77
2019-03-25T23:36:08.944Z,2.45
2019-03-25T23:38:38.542Z,2.40
2019-03-25T23:41:07.186Z,2.30
2019-03-25T23:43:35.787Z,2.70
2019-03-25T23:46:04.045Z,2.52
2019-03-25T23:48:32.675Z,2.70
2019-03-25T23:51:01.130Z,2.50
2019-03-25T23:53:29.370Z,2.70
2019-03-25T23:55:57.987Z,2.60
2019-03-25T23:58:29.051Z,2.50
